sensor_id;sensor_type;location;lat;lon;timestamp;pressure;altitude;pressure_sealevel;temperature;humidity
80335;BME280;69653;52.674;13.574;2023-09-12T00:01:47;100379.75;;;17.49;77.39
80335;BME280;69653;52.674;13.574;2023-09-12T00:04:12;100390.78;;;17.49;77.29
80335;BME280;69653;52.674;13.574;2023-09-12T00:06:38;100380.44;;;17.45;77.35
80335;BME280;69653;52.674;13.574;2023-09-12T00:09:03;100393.78;;;17.43;77.00
80335;BME280;69653;52.674;13.574;2023-09-12T00:11:30;100383.69;;;17.35;77.34
80335;BME280;69653;52.674;13.574;2023-09-12T00:13:56;100383.13;;;17.30;77.52
80335;BME280;69653;52.674;13.574;2023-09-12T00:16:21;100392.13;;;17.27;77.62
80335;BME280;69653;52.674;13.574;2023-09-12T00:18:46;100387.38;;;17.27;77.58
80335;BME280;69653;52.674;13.574;2023-09-12T00:21:12;100387.75;;;17.26;78.15
80335;BME280;69653;52.674;13.574;2023-09-12T00:23:37;100392.81;;;17.24;78.05
80335;BME280;69653;52.674;13.574;2023-09-12T00:26:02;100388.91;;;17.25;77.50
80335;BME280;69653;52.674;13.574;2023-09-12T00:28:28;100384.06;;;17.22;77.78
80335;BME280;69653;52.674;13.574;2023-09-12T00:30:53;100393.63;;;17.24;77.91
80335;BME280;69653;52.674;13.574;2023-09-12T00:33:18;100387.66;;;17.22;77.49
80335;BME280;69653;52.674;13.574;2023-09-12T00:35:44;100390.16;;;17.27;77.27
80335;BME280;69653;52.674;13.574;2023-09-12T00:38:10;100396.38;;;17.24;77.17
80335;BME280;69653;52.674;13.574;2023-09-12T00:40:35;100395.56;;;17.24;77.21
80335;BME280;69653;52.674;13.574;2023-09-12T00:43:02;100391.56;;;17.21;77.50
80335;BME280;69653;52.674;13.574;2023-09-12T00:45:27;100382.34;;;17.17;77.00
80335;BME280;69653;52.674;13.574;2023-09-12T00:47:53;100390.63;;;17.17;77.25
80335;BME280;69653;52.674;13.574;2023-09-12T00:50:20;100391.34;;;17.14;77.34
80335;BME280;69653;52.674;13.574;2023-09-12T00:52:48;100392.03;;;17.11;78.08
80335;BME280;69653;52.674;13.574;2023-09-12T00:55:14;100393.91;;;17.07;77.70
80335;BME280;69653;52.674;13.574;2023-09-12T00:57:40;100394.13;;;17.02;78.02
80335;BME280;69653;52.674;13.574;2023-09-12T01:00:07;100391.63;;;16.97;78.15
80335;BME280;69653;52.674;13.574;2023-09-12T01:02:40;100395.97;;;16.98;78.06
80335;BME280;69653;52.674;13.574;2023-09-12T01:05:07;100388.28;;;16.91;77.86
80335;BME280;69653;52.674;13.574;2023-09-12T01:07:33;100396.09;;;16.89;78.01
80335;BME280;69653;52.674;13.574;2023-09-12T01:09:59;100397.13;;;16.97;77.93
80335;BME280;69653;52.674;13.574;2023-09-12T01:12:24;100391.25;;;16.98;77.60
80335;BME280;69653;52.674;13.574;2023-09-12T01:14:50;100391.72;;;17.01;77.15
80335;BME280;69653;52.674;13.574;2023-09-12T01:17:15;100388.16;;;17.00;77.16
80335;BME280;69653;52.674;13.574;2023-09-12T01:19:40;100386.97;;;17.01;76.75
80335;BME280;69653;52.674;13.574;2023-09-12T01:27:58;100387.44;;;17.03;76.39
80335;BME280;69653;52.674;13.574;2023-09-12T01:30:25;100390.53;;;17.02;76.61
80335;BME280;69653;52.674;13.574;2023-09-12T01:32:53;100390.22;;;17.03;76.48
80335;BME280;69653;52.674;13.574;2023-09-12T01:35:18;100390.44;;;16.98;76.47
80335;BME280;69653;52.674;13.574;2023-09-12T01:37:44;100396.56;;;16.91;76.84
80335;BME280;69653;52.674;13.574;2023-09-12T01:40:09;100392.06;;;16.87;77.07
80335;BME280;69653;52.674;13.574;2023-09-12T01:42:37;100399.66;;;16.90;76.65
80335;BME280;69653;52.674;13.574;2023-09-12T01:45:04;100394.59;;;16.92;76.85
80335;BME280;69653;52.674;13.574;2023-09-12T01:47:31;100390.47;;;16.86;77.24
80335;BME280;69653;52.674;13.574;2023-09-12T01:49:58;100390.00;;;16.84;77.08
80335;BME280;69653;52.674;13.574;2023-09-12T01:52:26;100387.94;;;16.81;77.25
80335;BME280;69653;52.674;13.574;2023-09-12T01:54:53;100385.41;;;16.76;77.54
80335;BME280;69653;52.674;13.574;2023-09-12T01:57:19;100383.66;;;16.71;77.14
80335;BME280;69653;52.674;13.574;2023-09-12T01:59:48;100391.28;;;16.74;77.10
80335;BME280;69653;52.674;13.574;2023-09-12T02:02:17;100384.47;;;16.72;77.52
80335;BME280;69653;52.674;13.574;2023-09-12T02:07:34;100379.75;;;16.72;77.48
80335;BME280;69653;52.674;13.574;2023-09-12T02:10:02;100381.59;;;16.68;77.48
80335;BME280;69653;52.674;13.574;2023-09-12T02:12:30;100378.72;;;16.65;77.36
80335;BME280;69653;52.674;13.574;2023-09-12T02:14:56;100384.94;;;16.62;77.62
80335;BME280;69653;52.674;13.574;2023-09-12T02:17:21;100384.84;;;16.58;77.79
80335;BME280;69653;52.674;13.574;2023-09-12T02:19:47;100376.41;;;16.55;77.64
80335;BME280;69653;52.674;13.574;2023-09-12T02:22:13;100382.41;;;16.57;77.44
80335;BME280;69653;52.674;13.574;2023-09-12T02:24:38;100361.78;;;16.54;77.01
80335;BME280;69653;52.674;13.574;2023-09-12T02:27:04;100369.88;;;16.59;76.92
80335;BME280;69653;52.674;13.574;2023-09-12T02:29:29;100364.47;;;16.63;76.84
80335;BME280;69653;52.674;13.574;2023-09-12T02:31:55;100362.75;;;16.58;76.59
80335;BME280;69653;52.674;13.574;2023-09-12T02:34:21;100378.50;;;16.58;76.39
80335;BME280;69653;52.674;13.574;2023-09-12T02:36:46;100377.22;;;16.55;76.93
80335;BME280;69653;52.674;13.574;2023-09-12T02:39:11;100366.28;;;16.46;77.15
80335;BME280;69653;52.674;13.574;2023-09-12T02:41:37;100368.34;;;16.49;77.31
80335;BME280;69653;52.674;13.574;2023-09-12T02:44:02;100368.13;;;16.55;76.80
80335;BME280;69653;52.674;13.574;2023-09-12T02:46:27;100364.13;;;16.52;76.71
80335;BME280;69653;52.674;13.574;2023-09-12T02:48:52;100356.97;;;16.51;76.75
80335;BME280;69653;52.674;13.574;2023-09-12T02:51:18;100369.97;;;16.50;76.67
80335;BME280;69653;52.674;13.574;2023-09-12T02:53:43;100352.97;;;16.48;76.72
80335;BME280;69653;52.674;13.574;2023-09-12T02:56:08;100349.38;;;16.48;76.89
80335;BME280;69653;52.674;13.574;2023-09-12T02:58:34;100363.19;;;16.48;76.88
80335;BME280;69653;52.674;13.574;2023-09-12T03:00:59;100358.47;;;16.48;76.71
80335;BME280;69653;52.674;13.574;2023-09-12T03:03:24;100360.06;;;16.49;76.82
80335;BME280;69653;52.674;13.574;2023-09-12T03:06:00;100360.88;;;16.50;76.95
80335;BME280;69653;52.674;13.574;2023-09-12T03:08:27;100358.59;;;16.52;77.20
80335;BME280;69653;52.674;13.574;2023-09-12T03:10:55;100348.69;;;16.51;76.38
80335;BME280;69653;52.674;13.574;2023-09-12T03:13:20;100358.94;;;16.50;76.58
80335;BME280;69653;52.674;13.574;2023-09-12T03:15:45;100356.97;;;16.51;76.34
80335;BME280;69653;52.674;13.574;2023-09-12T03:18:11;100354.81;;;16.57;76.51
80335;BME280;69653;52.674;13.574;2023-09-12T03:20:38;100354.66;;;16.53;76.48
80335;BME280;69653;52.674;13.574;2023-09-12T03:23:03;100349.03;;;16.49;76.53
80335;BME280;69653;52.674;13.574;2023-09-12T03:25:28;100347.88;;;16.50;76.71
80335;BME280;69653;52.674;13.574;2023-09-12T03:27:54;100342.59;;;16.45;76.73
80335;BME280;69653;52.674;13.574;2023-09-12T03:30:20;100350.19;;;16.48;76.92
80335;BME280;69653;52.674;13.574;2023-09-12T03:32:45;100349.13;;;16.53;76.74
80335;BME280;69653;52.674;13.574;2023-09-12T03:35:10;100351.09;;;16.52;76.61
80335;BME280;69653;52.674;13.574;2023-09-12T03:37:36;100347.88;;;16.50;76.70
80335;BME280;69653;52.674;13.574;2023-09-12T03:40:06;100347.06;;;16.50;76.51
80335;BME280;69653;52.674;13.574;2023-09-12T03:42:32;100346.75;;;16.52;76.73
80335;BME280;69653;52.674;13.574;2023-09-12T03:44:57;100351.56;;;16.55;76.64
80335;BME280;69653;52.674;13.574;2023-09-12T03:47:22;100348.69;;;16.51;76.75
80335;BME280;69653;52.674;13.574;2023-09-12T03:49:48;100353.41;;;16.50;76.83
80335;BME280;69653;52.674;13.574;2023-09-12T03:52:13;100349.38;;;16.48;77.07
80335;BME280;69653;52.674;13.574;2023-09-12T03:54:38;100353.72;;;16.49;76.97
80335;BME280;69653;52.674;13.574;2023-09-12T03:57:04;100359.72;;;16.51;77.09
80335;BME280;69653;52.674;13.574;2023-09-12T03:59:29;100361.25;;;16.48;77.30
80335;BME280;69653;52.674;13.574;2023-09-12T04:01:54;100355.13;;;16.43;77.44
80335;BME280;69653;52.674;13.574;2023-09-12T04:04:19;100358.78;;;16.35;78.08
80335;BME280;69653;52.674;13.574;2023-09-12T04:06:45;100351.19;;;16.20;78.14
80335;BME280;69653;52.674;13.574;2023-09-12T04:09:10;100359.38;;;16.28;78.41
80335;BME280;69653;52.674;13.574;2023-09-12T04:11:36;100359.59;;;16.23;78.20
80335;BME280;69653;52.674;13.574;2023-09-12T04:14:01;100371.91;;;16.26;78.28
80335;BME280;69653;52.674;13.574;2023-09-12T04:16:26;100374.56;;;16.22;78.55
80335;BME280;69653;52.674;13.574;2023-09-12T04:18:51;100374.19;;;16.24;78.38
80335;BME280;69653;52.674;13.574;2023-09-12T04:21:17;100369.03;;;16.22;78.71
80335;BME280;69653;52.674;13.574;2023-09-12T04:23:42;100371.78;;;16.22;78.75
80335;BME280;69653;52.674;13.574;2023-09-12T04:26:07;100367.75;;;16.20;78.79
80335;BME280;69653;52.674;13.574;2023-09-12T04:28:33;100370.88;;;16.18;78.64
80335;BME280;69653;52.674;13.574;2023-09-12T04:31:04;100365.09;;;16.11;79.01
80335;BME280;69653;52.674;13.574;2023-09-12T04:33:29;100367.25;;;16.06;79.02
80335;BME280;69653;52.674;13.574;2023-09-12T04:35:57;100365.31;;;16.06;79.28
80335;BME280;69653;52.674;13.574;2023-09-12T04:38:23;100365.06;;;15.99;79.37
80335;BME280;69653;52.674;13.574;2023-09-12T04:40:56;100377.97;;;16.07;79.43
80335;BME280;69653;52.674;13.574;2023-09-12T04:43:21;100377.16;;;16.07;79.70
80335;BME280;69653;52.674;13.574;2023-09-12T04:45:47;100366.44;;;16.05;79.31
80335;BME280;69653;52.674;13.574;2023-09-12T04:48:13;100374.72;;;16.05;79.69
80335;BME280;69653;52.674;13.574;2023-09-12T04:50:42;100376.47;;;16.10;79.39
80335;BME280;69653;52.674;13.574;2023-09-12T04:53:07;100375.78;;;16.13;79.53
80335;BME280;69653;52.674;13.574;2023-09-12T04:55:38;100369.44;;;16.12;79.44
80335;BME280;69653;52.674;13.574;2023-09-12T04:58:05;100364.53;;;16.18;79.03
80335;BME280;69653;52.674;13.574;2023-09-12T05:00:31;100369.03;;;16.22;78.67
80335;BME280;69653;52.674;13.574;2023-09-12T05:02:56;100373.63;;;16.30;78.63
80335;BME280;69653;52.674;13.574;2023-09-12T05:05:21;100376.97;;;16.36;78.03
80335;BME280;69653;52.674;13.574;2023-09-12T05:07:47;100372.25;;;16.36;77.93
80335;BME280;69653;52.674;13.574;2023-09-12T05:10:12;100372.00;;;16.41;77.98
80335;BME280;69653;52.674;13.574;2023-09-12T05:12:38;100377.09;;;16.52;77.84
80335;BME280;69653;52.674;13.574;2023-09-12T05:15:04;100374.69;;;16.50;77.79
80335;BME280;69653;52.674;13.574;2023-09-12T05:17:29;100378.34;;;16.54;77.94
80335;BME280;69653;52.674;13.574;2023-09-12T05:19:54;100372.97;;;16.58;77.30
80335;BME280;69653;52.674;13.574;2023-09-12T05:22:20;100380.25;;;16.74;76.95
80335;BME280;69653;52.674;13.574;2023-09-12T05:24:45;100382.94;;;17.11;75.71
80335;BME280;69653;52.674;13.574;2023-09-12T05:27:11;100382.50;;;17.49;74.66
80335;BME280;69653;52.674;13.574;2023-09-12T05:29:36;100378.94;;;17.76;73.41
80335;BME280;69653;52.674;13.574;2023-09-12T05:32:03;100379.03;;;18.07;71.76
80335;BME280;69653;52.674;13.574;2023-09-12T05:34:28;100379.41;;;18.37;70.86
80335;BME280;69653;52.674;13.574;2023-09-12T05:36:54;100380.94;;;18.66;69.63
80335;BME280;69653;52.674;13.574;2023-09-12T05:39:19;100385.34;;;19.02;68.57
80335;BME280;69653;52.674;13.574;2023-09-12T05:41:44;100395.38;;;19.25;68.06
80335;BME280;69653;52.674;13.574;2023-09-12T05:44:10;100389.66;;;19.53;66.76
80335;BME280;69653;52.674;13.574;2023-09-12T05:46:37;100391.84;;;19.82;65.89
80335;BME280;69653;52.674;13.574;2023-09-12T05:49:03;100390.97;;;20.20;64.93
80335;BME280;69653;52.674;13.574;2023-09-12T05:51:29;100395.25;;;20.37;63.67
80335;BME280;69653;52.674;13.574;2023-09-12T05:53:54;100391.13;;;20.50;63.52
80335;BME280;69653;52.674;13.574;2023-09-12T05:56:19;100391.66;;;20.59;63.03
80335;BME280;69653;52.674;13.574;2023-09-12T05:58:46;100392.13;;;20.61;62.59
80335;BME280;69653;52.674;13.574;2023-09-12T06:01:11;100395.94;;;20.53;64.61
80335;BME280;69653;52.674;13.574;2023-09-12T06:03:37;100396.34;;;20.55;64.35
80335;BME280;69653;52.674;13.574;2023-09-12T06:06:02;100394.28;;;20.49;64.51
80335;BME280;69653;52.674;13.574;2023-09-12T06:08:27;100400.41;;;20.35;64.28
80335;BME280;69653;52.674;13.574;2023-09-12T06:10:53;100398.44;;;20.36;63.31
80335;BME280;69653;52.674;13.574;2023-09-12T06:13:19;100406.31;;;20.33;65.17
80335;BME280;69653;52.674;13.574;2023-09-12T06:15:45;100399.88;;;20.29;65.69
80335;BME280;69653;52.674;13.574;2023-09-12T06:18:10;100400.94;;;20.44;65.84
80335;BME280;69653;52.674;13.574;2023-09-12T06:20:35;100408.22;;;20.52;64.39
80335;BME280;69653;52.674;13.574;2023-09-12T06:23:01;100410.25;;;20.55;64.42
80335;BME280;69653;52.674;13.574;2023-09-12T06:25:26;100416.25;;;20.80;64.16
80335;BME280;69653;52.674;13.574;2023-09-12T06:27:53;100425.31;;;21.03;63.36
80335;BME280;69653;52.674;13.574;2023-09-12T06:30:19;100410.16;;;21.23;62.38
80335;BME280;69653;52.674;13.574;2023-09-12T06:32:44;100414.66;;;21.61;61.47
80335;BME280;69653;52.674;13.574;2023-09-12T06:35:09;100415.75;;;22.20;59.71
80335;BME280;69653;52.674;13.574;2023-09-12T06:37:37;100401.41;;;22.62;58.41
80335;BME280;69653;52.674;13.574;2023-09-12T06:40:02;100407.22;;;22.87;56.42
80335;BME280;69653;52.674;13.574;2023-09-12T06:42:28;100412.06;;;22.97;56.21
80335;BME280;69653;52.674;13.574;2023-09-12T06:44:54;100410.47;;;22.96;56.19
80335;BME280;69653;52.674;13.574;2023-09-12T06:47:19;100421.66;;;22.99;56.11
80335;BME280;69653;52.674;13.574;2023-09-12T06:49:44;100421.69;;;23.06;55.57
80335;BME280;69653;52.674;13.574;2023-09-12T06:52:10;100421.88;;;23.38;55.12
80335;BME280;69653;52.674;13.574;2023-09-12T06:54:35;100420.16;;;23.88;53.85
80335;BME280;69653;52.674;13.574;2023-09-12T06:57:01;100423.88;;;24.42;51.93
80335;BME280;69653;52.674;13.574;2023-09-12T06:59:26;100427.94;;;24.90;50.26
80335;BME280;69653;52.674;13.574;2023-09-12T07:01:51;100424.34;;;25.07;49.88
80335;BME280;69653;52.674;13.574;2023-09-12T07:04:16;100435.91;;;25.27;49.10
80335;BME280;69653;52.674;13.574;2023-09-12T07:06:42;100431.44;;;25.44;48.27
80335;BME280;69653;52.674;13.574;2023-09-12T07:09:08;100430.63;;;25.57;48.43
80335;BME280;69653;52.674;13.574;2023-09-12T07:11:34;100430.59;;;25.72;47.49
80335;BME280;69653;52.674;13.574;2023-09-12T07:13:59;100436.19;;;25.72;47.74
80335;BME280;69653;52.674;13.574;2023-09-12T07:16:25;100427.25;;;25.94;46.77
80335;BME280;69653;52.674;13.574;2023-09-12T07:18:50;100434.28;;;26.34;46.09
80335;BME280;69653;52.674;13.574;2023-09-12T07:21:16;100449.00;;;26.49;45.61
80335;BME280;69653;52.674;13.574;2023-09-12T07:23:41;100442.31;;;26.87;44.74
80335;BME280;69653;52.674;13.574;2023-09-12T07:26:12;100439.84;;;26.96;44.06
80335;BME280;69653;52.674;13.574;2023-09-12T07:28:38;100427.97;;;26.75;44.92
80335;BME280;69653;52.674;13.574;2023-09-12T07:31:03;100436.41;;;26.71;45.06
80335;BME280;69653;52.674;13.574;2023-09-12T07:33:28;100438.34;;;26.81;45.08
80335;BME280;69653;52.674;13.574;2023-09-12T07:35:54;100449.19;;;26.83;44.78
80335;BME280;69653;52.674;13.574;2023-09-12T07:38:20;100438.63;;;26.97;44.01
80335;BME280;69653;52.674;13.574;2023-09-12T07:40:46;100427.34;;;27.42;44.16
80335;BME280;69653;52.674;13.574;2023-09-12T07:43:11;100426.44;;;27.86;42.86
80335;BME280;69653;52.674;13.574;2023-09-12T07:45:36;100433.06;;;28.03;41.54
80335;BME280;69653;52.674;13.574;2023-09-12T07:48:07;100438.41;;;28.24;40.93
80335;BME280;69653;52.674;13.574;2023-09-12T07:50:32;100431.66;;;28.44;41.17
80335;BME280;69653;52.674;13.574;2023-09-12T07:52:58;100431.25;;;28.73;40.63
80335;BME280;69653;52.674;13.574;2023-09-12T07:55:23;100428.56;;;29.35;38.75
80335;BME280;69653;52.674;13.574;2023-09-12T07:57:48;100421.91;;;29.65;38.19
80335;BME280;69653;52.674;13.574;2023-09-12T08:00:14;100423.13;;;29.64;38.00
80335;BME280;69653;52.674;13.574;2023-09-12T08:02:39;100423.84;;;30.08;37.07
80335;BME280;69653;52.674;13.574;2023-09-12T08:05:05;100422.38;;;30.55;36.55
80335;BME280;69653;52.674;13.574;2023-09-12T08:07:31;100429.34;;;30.83;35.35
80335;BME280;69653;52.674;13.574;2023-09-12T08:09:57;100432.31;;;30.60;36.59
80335;BME280;69653;52.674;13.574;2023-09-12T08:12:24;100435.50;;;30.94;35.99
80335;BME280;69653;52.674;13.574;2023-09-12T08:14:51;100435.44;;;30.98;35.47
80335;BME280;69653;52.674;13.574;2023-09-12T08:17:16;100435.34;;;30.69;36.37
80335;BME280;69653;52.674;13.574;2023-09-12T08:19:41;100442.22;;;30.84;35.83
80335;BME280;69653;52.674;13.574;2023-09-12T08:22:08;100440.09;;;30.72;36.14
80335;BME280;69653;52.674;13.574;2023-09-12T08:24:37;100444.59;;;31.18;34.66
80335;BME280;69653;52.674;13.574;2023-09-12T08:27:03;100423.66;;;31.60;34.26
80335;BME280;69653;52.674;13.574;2023-09-12T08:29:29;100430.31;;;31.54;34.19
80335;BME280;69653;52.674;13.574;2023-09-12T08:31:54;100435.06;;;31.86;33.79
80335;BME280;69653;52.674;13.574;2023-09-12T08:34:20;100440.34;;;31.84;34.47
80335;BME280;69653;52.674;13.574;2023-09-12T08:36:45;100443.00;;;31.62;33.99
80335;BME280;69653;52.674;13.574;2023-09-12T08:39:14;100434.91;;;31.77;34.17
80335;BME280;69653;52.674;13.574;2023-09-12T08:41:40;100432.41;;;32.07;32.89
80335;BME280;69653;52.674;13.574;2023-09-12T08:44:05;100431.22;;;32.05;33.61
80335;BME280;69653;52.674;13.574;2023-09-12T08:46:31;100425.19;;;31.78;33.75
80335;BME280;69653;52.674;13.574;2023-09-12T08:48:57;100436.75;;;31.96;33.82
80335;BME280;69653;52.674;13.574;2023-09-12T08:51:23;100429.16;;;31.51;34.56
80335;BME280;69653;52.674;13.574;2023-09-12T08:53:52;100450.38;;;31.43;35.12
80335;BME280;69653;52.674;13.574;2023-09-12T08:56:20;100446.63;;;31.46;35.57
80335;BME280;69653;52.674;13.574;2023-09-12T08:58:46;100437.47;;;32.12;34.48
80335;BME280;69653;52.674;13.574;2023-09-12T09:01:14;100436.50;;;32.44;34.65
80335;BME280;69653;52.674;13.574;2023-09-12T09:03:42;100437.75;;;32.68;32.83
80335;BME280;69653;52.674;13.574;2023-09-12T09:06:09;100441.25;;;32.85;32.92
80335;BME280;69653;52.674;13.574;2023-09-12T09:08:35;100434.50;;;33.17;32.77
80335;BME280;69653;52.674;13.574;2023-09-12T09:11:01;100441.00;;;32.80;33.05
80335;BME280;69653;52.674;13.574;2023-09-12T09:13:32;100453.09;;;33.18;32.70
80335;BME280;69653;52.674;13.574;2023-09-12T09:16:10;100455.00;;;33.21;32.00
80335;BME280;69653;52.674;13.574;2023-09-12T09:21:22;100445.06;;;33.04;32.45
80335;BME280;69653;52.674;13.574;2023-09-12T09:23:50;100442.03;;;33.33;32.28
80335;BME280;69653;52.674;13.574;2023-09-12T09:26:15;100441.09;;;33.01;33.08
80335;BME280;69653;52.674;13.574;2023-09-12T09:28:41;100438.97;;;32.80;33.62
80335;BME280;69653;52.674;13.574;2023-09-12T09:31:11;100449.44;;;33.30;32.41
80335;BME280;69653;52.674;13.574;2023-09-12T09:33:36;100445.19;;;32.88;32.62
80335;BME280;69653;52.674;13.574;2023-09-12T09:36:03;100460.28;;;32.72;33.40
80335;BME280;69653;52.674;13.574;2023-09-12T09:38:29;100460.50;;;32.65;33.56
80335;BME280;69653;52.674;13.574;2023-09-12T09:40:55;100451.16;;;33.02;33.30
80335;BME280;69653;52.674;13.574;2023-09-12T09:43:21;100454.47;;;33.01;33.21
80335;BME280;69653;52.674;13.574;2023-09-12T09:45:46;100454.78;;;33.03;33.07
80335;BME280;69653;52.674;13.574;2023-09-12T09:48:21;100453.72;;;32.75;33.28
80335;BME280;69653;52.674;13.574;2023-09-12T09:50:47;100450.53;;;32.48;33.92
80335;BME280;69653;52.674;13.574;2023-09-12T09:53:12;100452.91;;;32.49;33.67
80335;BME280;69653;52.674;13.574;2023-09-12T09:55:37;100461.38;;;32.87;33.16
80335;BME280;69653;52.674;13.574;2023-09-12T09:58:06;100452.88;;;33.00;33.47
80335;BME280;69653;52.674;13.574;2023-09-12T10:00:34;100443.88;;;32.42;33.84
80335;BME280;69653;52.674;13.574;2023-09-12T10:03:04;100454.97;;;32.74;33.86
80335;BME280;69653;52.674;13.574;2023-09-12T10:05:31;100456.63;;;32.97;33.66
80335;BME280;69653;52.674;13.574;2023-09-12T10:07:57;100449.06;;;32.81;33.13
80335;BME280;69653;52.674;13.574;2023-09-12T10:10:24;100453.72;;;32.62;33.99
80335;BME280;69653;52.674;13.574;2023-09-12T10:12:51;100444.97;;;32.32;34.44
80335;BME280;69653;52.674;13.574;2023-09-12T10:15:21;100445.56;;;32.64;33.98
80335;BME280;69653;52.674;13.574;2023-09-12T10:17:58;100446.22;;;32.94;33.75
80335;BME280;69653;52.674;13.574;2023-09-12T10:20:33;100448.22;;;33.19;33.42
80335;BME280;69653;52.674;13.574;2023-09-12T10:23:14;100437.63;;;32.72;33.96
80335;BME280;69653;52.674;13.574;2023-09-12T10:25:44;100449.84;;;32.56;34.15
80335;BME280;69653;52.674;13.574;2023-09-12T10:28:10;100441.69;;;32.84;33.94
80335;BME280;69653;52.674;13.574;2023-09-12T10:30:36;100449.63;;;33.36;32.88
80335;BME280;69653;52.674;13.574;2023-09-12T10:33:02;100439.41;;;33.38;33.38
80335;BME280;69653;52.674;13.574;2023-09-12T10:35:31;100433.16;;;33.43;33.50
80335;BME280;69653;52.674;13.574;2023-09-12T10:38:01;100424.25;;;33.54;33.60
80335;BME280;69653;52.674;13.574;2023-09-12T10:40:29;100432.31;;;33.21;33.75
80335;BME280;69653;52.674;13.574;2023-09-12T10:42:55;100426.63;;;33.55;33.73
80335;BME280;69653;52.674;13.574;2023-09-12T10:45:23;100423.69;;;33.81;32.38
80335;BME280;69653;52.674;13.574;2023-09-12T10:47:49;100416.03;;;33.90;32.39
80335;BME280;69653;52.674;13.574;2023-09-12T10:50:14;100411.47;;;33.93;32.49
80335;BME280;69653;52.674;13.574;2023-09-12T10:52:40;100411.03;;;33.73;32.68
80335;BME280;69653;52.674;13.574;2023-09-12T10:55:07;100420.22;;;34.07;32.20
80335;BME280;69653;52.674;13.574;2023-09-12T10:57:33;100420.16;;;34.20;31.75
80335;BME280;69653;52.674;13.574;2023-09-12T11:02:35;100411.38;;;34.27;31.71
80335;BME280;69653;52.674;13.574;2023-09-12T11:05:06;100418.19;;;34.39;31.91
80335;BME280;69653;52.674;13.574;2023-09-12T11:12:41;100410.97;;;33.63;32.81
80335;BME280;69653;52.674;13.574;2023-09-12T11:15:08;100411.47;;;33.93;32.53
80335;BME280;69653;52.674;13.574;2023-09-12T11:17:38;100406.22;;;34.13;32.35
80335;BME280;69653;52.674;13.574;2023-09-12T11:20:03;100404.22;;;33.92;32.08
80335;BME280;69653;52.674;13.574;2023-09-12T11:22:42;100410.50;;;34.18;32.23
80335;BME280;69653;52.674;13.574;2023-09-12T11:25:23;100408.88;;;34.38;31.44
80335;BME280;69653;52.674;13.574;2023-09-12T11:30:26;100410.25;;;33.72;32.76
80335;BME280;69653;52.674;13.574;2023-09-12T11:32:56;100407.31;;;33.85;32.78
80335;BME280;69653;52.674;13.574;2023-09-12T11:35:23;100407.53;;;33.90;32.21
80335;BME280;69653;52.674;13.574;2023-09-12T11:37:53;100406.13;;;33.73;32.31
80335;BME280;69653;52.674;13.574;2023-09-12T11:40:24;100404.47;;;33.85;32.51
80335;BME280;69653;52.674;13.574;2023-09-12T11:42:50;100398.53;;;33.48;32.99
80335;BME280;69653;52.674;13.574;2023-09-12T11:45:18;100405.41;;;33.38;33.76
80335;BME280;69653;52.674;13.574;2023-09-12T11:47:45;100402.19;;;33.71;33.09
80335;BME280;69653;52.674;13.574;2023-09-12T11:53:03;100393.31;;;33.47;33.64
80335;BME280;69653;52.674;13.574;2023-09-12T11:55:36;100392.34;;;32.59;34.83
80335;BME280;69653;52.674;13.574;2023-09-12T11:58:02;100400.03;;;32.72;34.50
80335;BME280;69653;52.674;13.574;2023-09-12T12:00:28;100397.91;;;32.63;34.67
80335;BME280;69653;52.674;13.574;2023-09-12T12:02:54;100388.94;;;32.64;34.92
80335;BME280;69653;52.674;13.574;2023-09-12T12:05:20;100399.94;;;32.75;34.45
80335;BME280;69653;52.674;13.574;2023-09-12T12:07:47;100390.88;;;32.67;34.59
80335;BME280;69653;52.674;13.574;2023-09-12T12:10:13;100393.50;;;33.09;34.01
80335;BME280;69653;52.674;13.574;2023-09-12T12:12:38;100390.16;;;33.23;33.80
80335;BME280;69653;52.674;13.574;2023-09-12T12:15:09;100391.53;;;33.62;33.77
80335;BME280;69653;52.674;13.574;2023-09-12T12:17:35;100391.94;;;33.51;33.30
80335;BME280;69653;52.674;13.574;2023-09-12T12:20:02;100392.06;;;33.26;33.40
80335;BME280;69653;52.674;13.574;2023-09-12T12:22:32;100392.34;;;33.06;33.78
80335;BME280;69653;52.674;13.574;2023-09-12T12:25:09;100384.22;;;32.96;33.76
80335;BME280;69653;52.674;13.574;2023-09-12T12:27:38;100387.69;;;32.78;34.27
80335;BME280;69653;52.674;13.574;2023-09-12T12:30:11;100394.81;;;32.70;34.33
80335;BME280;69653;52.674;13.574;2023-09-12T12:32:43;100388.25;;;32.73;33.99
80335;BME280;69653;52.674;13.574;2023-09-12T12:35:20;100393.25;;;32.56;34.49
80335;BME280;69653;52.674;13.574;2023-09-12T12:37:51;100388.63;;;32.12;35.08
80335;BME280;69653;52.674;13.574;2023-09-12T12:40:17;100394.78;;;31.94;35.64
80335;BME280;69653;52.674;13.574;2023-09-12T12:42:45;100396.78;;;32.22;35.26
80335;BME280;69653;52.674;13.574;2023-09-12T12:45:15;100389.84;;;32.61;34.12
80335;BME280;69653;52.674;13.574;2023-09-12T12:47:41;100391.66;;;32.43;34.76
80335;BME280;69653;52.674;13.574;2023-09-12T12:50:17;100383.78;;;31.84;35.56
80335;BME280;69653;52.674;13.574;2023-09-12T12:52:47;100386.72;;;31.67;35.77
80335;BME280;69653;52.674;13.574;2023-09-12T12:55:14;100386.06;;;31.89;35.71
80335;BME280;69653;52.674;13.574;2023-09-12T12:57:42;100385.19;;;32.04;35.13
80335;BME280;69653;52.674;13.574;2023-09-12T13:00:10;100386.25;;;32.23;35.09
80335;BME280;69653;52.674;13.574;2023-09-12T13:02:37;100374.91;;;32.36;34.63